New York, New York
Traffic Map
Current Weather Conditions
New York, New York
Broken Clouds
Broken Clouds
31°
Feels Like: 34°
Wind Chill: 31° Ceiling: 8000
Heat Index: 34° Visibility: 10mi
Dew Point: 22° Wind: 6mph
Humidity: 58% Direction: 200° (SSW)
Pressure: 29.94in Gusts: 0mph
Raw Report DataKJRB 012135Z AUTO 20005KT 10SM FEW048 BKN080 31/22 A2994 RMK AO1
Traffic Incident Summary
Active as of:
Severity:
Category:
InformationThere was an issue retrieving the traffic information for this location. Please try a different location or try again shortly.
Advertisements
Track Severe Weather on mobile